Time,TemperatureF,DewpointF,PressureIn,WindDirection,WindDirectionDegrees,WindSpeedMPH,WindSpeedGustMPH,Humidity,HourlyPrecipIn,Conditions,Clouds,dailyrainin,SoftwareType,DateUTC
2017-02-24 00:04:00,50.2,49.8,29.80,South,176,0.0,0.0,99,0.00,,,0.00,meteobridge,2017-02-24 05:04:00,
2017-02-24 00:09:00,50.2,49.8,29.80,South,176,0.0,0.0,99,0.00,,,0.00,meteobridge,2017-02-24 05:09:00,
2017-02-24 00:14:00,50.2,49.8,29.80,South,176,0.0,0.0,99,0.00,,,0.00,meteobridge,2017-02-24 05:14:00,
2017-02-24 00:19:00,50.4,50.4,29.79,South,176,0.0,0.0,100,0.00,,,0.00,meteobridge,2017-02-24 05:19:00,
2017-02-24 00:24:00,50.4,50.4,29.79,South,176,0.0,0.0,100,0.00,,,0.00,meteobridge,2017-02-24 05:24:00,
2017-02-24 00:29:00,50.5,50.5,29.78,South,176,0.0,0.0,100,0.00,,,0.00,meteobridge,2017-02-24 05:29:00,
2017-02-24 00:34:00,50.5,50.5,29.78,South,176,0.0,0.0,100,0.00,,,0.00,meteobridge,2017-02-24 05:34:00,
2017-02-24 00:40:00,50.4,50.4,29.78,South,176,0.0,0.0,100,0.00,,,0.00,meteobridge,2017-02-24 05:40:00,
2017-02-24 00:45:00,50.5,50.5,29.78,South,176,0.0,0.0,100,0.00,,,0.00,meteobridge,2017-02-24 05:45:00,
2017-02-24 00:50:00,50.7,50.7,29.78,South,176,0.0,0.0,100,0.00,,,0.00,meteobridge,2017-02-24 05:50:00,
2017-02-24 00:55:00,51.1,51.1,29.78,South,176,0.0,0.0,100,0.00,,,0.00,meteobridge,2017-02-24 05:55:00,
2017-02-24 01:00:00,51.1,51.1,29.79,South,176,0.0,0.0,100,0.00,,,0.00,meteobridge,2017-02-24 06:00:00,
2017-02-24 01:05:00,51.1,51.1,29.79,South,176,0.0,0.0,100,0.00,,,0.00,meteobridge,2017-02-24 06:05:00,
2017-02-24 01:10:00,51.1,51.1,29.79,South,176,0.0,0.0,100,0.00,,,0.00,meteobridge,2017-02-24 06:10:00,
2017-02-24 01:16:00,51.1,51.1,29.78,South,175,0.0,0.0,100,0.00,,,0.00,meteobridge,2017-02-24 06:16:00,
2017-02-24 01:21:00,51.1,51.1,29.78,South,176,0.0,0.0,100,0.00,,,0.00,meteobridge,2017-02-24 06:21:00,
2017-02-24 01:26:00,51.1,51.1,29.78,South,176,0.0,0.0,100,0.00,,,0.00,meteobridge,2017-02-24 06:26:00,
2017-02-24 01:31:00,51.1,51.1,29.78,South,176,0.0,0.0,100,0.00,,,0.00,meteobridge,2017-02-24 06:31:00,
2017-02-24 01:36:00,51.1,51.1,29.78,South,176,0.0,0.0,100,0.00,,,0.00,meteobridge,2017-02-24 06:36:00,
2017-02-24 01:41:00,51.1,51.1,29.78,South,176,0.0,0.0,100,0.00,,,0.00,meteobridge,2017-02-24 06:41:00,
2017-02-24 01:46:00,50.7,50.7,29.78,South,176,0.0,0.0,100,0.00,,,0.00,meteobridge,2017-02-24 06:46:00,
2017-02-24 01:51:00,51.1,51.1,29.78,South,176,0.0,0.0,100,0.00,,,0.00,meteobridge,2017-02-24 06:51:00,
2017-02-24 01:56:00,51.1,51.1,29.78,South,176,0.0,0.0,100,0.00,,,0.00,meteobridge,2017-02-24 06:56:00,
2017-02-24 02:01:00,50.7,50.7,29.78,South,175,0.0,0.0,100,0.00,,,0.00,meteobridge,2017-02-24 07:01:00,
2017-02-24 02:06:00,50.7,50.7,29.78,South,176,0.0,0.0,100,0.00,,,0.00,meteobridge,2017-02-24 07:06:00,
2017-02-24 02:11:00,50.4,50.4,29.78,South,176,0.0,0.0,100,0.00,,,0.00,meteobridge,2017-02-24 07:11:00,
2017-02-24 02:17:00,50.2,50.2,29.78,South,176,0.0,0.0,100,0.00,,,0.00,meteobridge,2017-02-24 07:17:00,
2017-02-24 02:22:00,50.2,50.2,29.78,South,176,0.0,0.0,100,0.00,,,0.00,meteobridge,2017-02-24 07:22:00,
2017-02-24 02:27:00,49.8,49.8,29.78,South,176,0.0,0.0,100,0.00,,,0.00,meteobridge,2017-02-24 07:27:00,
2017-02-24 02:32:00,49.8,49.8,29.78,South,176,0.0,0.0,100,0.00,,,0.00,meteobridge,2017-02-24 07:32:00,
2017-02-24 02:38:00,49.6,49.6,29.78,South,176,0.0,0.0,100,0.00,,,0.00,meteobridge,2017-02-24 07:38:00,
2017-02-24 02:43:00,49.6,49.6,29.78,South,176,0.0,0.0,100,0.00,,,0.00,meteobridge,2017-02-24 07:43:00,
2017-02-24 02:48:00,49.8,49.8,29.78,South,176,0.0,0.0,100,0.00,,,0.00,meteobridge,2017-02-24 07:48:00,
2017-02-24 02:53:00,49.6,49.6,29.78,South,176,0.0,0.0,100,0.00,,,0.00,meteobridge,2017-02-24 07:53:00,
2017-02-24 02:58:00,49.5,49.5,29.78,South,176,0.0,0.0,100,0.00,,,0.00,meteobridge,2017-02-24 07:58:00,
2017-02-24 03:04:00,49.5,49.5,29.77,South,175,0.0,0.0,100,0.00,,,0.00,meteobridge,2017-02-24 08:04:00,
2017-02-24 03:09:00,49.5,49.5,29.77,South,175,0.0,0.0,100,0.00,,,0.00,meteobridge,2017-02-24 08:09:00,